createdAt,value
2023-03-12T00:02:19.404Z,13.27
2023-03-12T00:04:45.710Z,13.57
2023-03-12T00:07:12.019Z,13.47
2023-03-12T00:09:38.348Z,13.10
2023-03-12T00:12:04.685Z,13.70
2023-03-12T00:14:30.991Z,12.00
2023-03-12T00:16:57.285Z,11.60
2023-03-12T00:19:23.585Z,11.87
2023-03-12T00:21:49.909Z,11.23
2023-03-12T00:24:16.818Z,11.60
2023-03-12T00:26:43.185Z,10.33
2023-03-12T00:29:09.490Z,8.97
2023-03-12T00:31:35.963Z,6.85
2023-03-12T00:34:02.316Z,6.15
2023-03-12T00:36:28.864Z,5.25
2023-03-12T00:38:55.177Z,4.23
2023-03-12T00:41:21.551Z,4.90
2023-03-12T00:43:47.893Z,4.18
2023-03-12T00:46:14.205Z,4.07
2023-03-12T00:48:40.537Z,4.03
2023-03-12T00:51:06.853Z,3.87
2023-03-12T00:53:33.175Z,4.00
2023-03-12T00:55:59.496Z,3.75
2023-03-12T00:58:25.828Z,3.37
2023-03-12T01:00:52.160Z,3.97
2023-03-12T01:03:18.478Z,3.20
2023-03-12T01:05:44.824Z,3.00
2023-03-12T01:08:11.140Z,3.30
2023-03-12T01:10:37.516Z,2.80
2023-03-12T01:13:03.818Z,3.40
2023-03-12T01:15:30.189Z,4.50
2023-03-12T01:17:56.488Z,3.07
2023-03-12T01:20:23.311Z,3.73
2023-03-12T01:22:49.790Z,3.30
2023-03-12T01:25:16.101Z,3.07
2023-03-12T01:27:42.412Z,3.33
2023-03-12T01:30:08.752Z,3.03
2023-03-12T01:32:35.119Z,3.20
2023-03-12T01:35:01.482Z,3.37
2023-03-12T01:37:27.823Z,3.00
2023-03-12T01:39:54.130Z,3.20
2023-03-12T01:42:20.436Z,3.00
2023-03-12T01:44:46.759Z,3.13
2023-03-12T01:47:13.079Z,3.10
2023-03-12T01:49:39.401Z,3.30
2023-03-12T01:52:05.947Z,4.27
2023-03-12T01:54:32.342Z,2.57
2023-03-12T01:56:58.662Z,3.60
2023-03-12T01:59:24.995Z,3.10
2023-03-12T02:01:51.549Z,2.83
2023-03-12T02:04:17.940Z,2.70
2023-03-12T02:06:44.381Z,3.40
2023-03-12T02:09:12.680Z,2.90
2023-03-12T02:11:39.016Z,2.83
2023-03-12T02:14:05.336Z,3.60
2023-03-12T02:16:31.827Z,3.20
2023-03-12T02:18:58.220Z,2.80
2023-03-12T02:21:24.534Z,2.83
2023-03-12T02:23:50.878Z,3.03
2023-03-12T02:26:17.182Z,3.67
2023-03-12T02:28:44.327Z,3.07
2023-03-12T02:31:10.736Z,3.40
2023-03-12T02:33:37.073Z,2.70
2023-03-12T02:36:03.423Z,2.60
2023-03-12T02:38:29.737Z,2.80
2023-03-12T02:40:56.076Z,3.03
2023-03-12T02:43:22.444Z,3.20
2023-03-12T02:45:48.794Z,3.20
2023-03-12T02:48:15.152Z,3.13
2023-03-12T02:50:41.457Z,3.53
2023-03-12T02:53:07.778Z,3.20
2023-03-12T02:55:34.087Z,3.17
2023-03-12T02:58:00.626Z,3.20
2023-03-12T03:00:26.961Z,2.80
2023-03-12T03:02:53.262Z,3.50
2023-03-12T03:05:20.580Z,3.83
2023-03-12T03:07:46.906Z,3.73
2023-03-12T03:10:13.257Z,3.30
2023-03-12T03:12:39.564Z,3.27
2023-03-12T03:15:05.975Z,3.50
2023-03-12T03:17:32.296Z,3.50
2023-03-12T03:19:58.631Z,3.87
2023-03-12T03:22:24.934Z,3.10
2023-03-12T03:24:51.305Z,3.10
2023-03-12T03:27:17.641Z,3.30
2023-03-12T03:29:43.941Z,3.10
2023-03-12T03:32:10.272Z,3.20
2023-03-12T03:34:36.579Z,2.73
2023-03-12T03:37:02.942Z,3.27
2023-03-12T03:39:29.290Z,2.80
2023-03-12T03:41:55.595Z,3.00
2023-03-12T03:44:23.199Z,3.00
2023-03-12T03:46:49.648Z,2.87
2023-03-12T03:49:16.888Z,2.70
2023-03-12T03:51:43.413Z,2.83
2023-03-12T03:54:09.791Z,3.93
2023-03-12T03:56:36.153Z,2.93
2023-03-12T03:59:03.130Z,3.13
2023-03-12T04:01:29.460Z,3.50
2023-03-12T04:03:55.779Z,2.93
2023-03-12T04:06:22.132Z,3.40
2023-03-12T04:08:48.457Z,3.03
2023-03-12T04:11:15.007Z,3.47
2023-03-12T04:13:41.356Z,2.73
2023-03-12T04:16:07.833Z,2.60
2023-03-12T04:18:36.121Z,3.10
2023-03-12T04:21:02.476Z,2.90
2023-03-12T04:23:28.796Z,2.50
2023-03-12T04:25:55.117Z,2.63
2023-03-12T04:28:21.557Z,2.53
2023-03-12T04:30:47.873Z,2.60
2023-03-12T04:33:14.191Z,3.20
2023-03-12T04:35:40.538Z,2.33
2023-03-12T04:38:06.885Z,2.57
2023-03-12T04:40:33.234Z,3.03
2023-03-12T04:42:59.536Z,2.83
2023-03-12T04:45:25.908Z,2.90
2023-03-12T04:47:52.272Z,2.30
2023-03-12T04:50:18.616Z,2.60
2023-03-12T04:52:44.957Z,2.57
2023-03-12T04:55:11.321Z,3.00
2023-03-12T04:57:37.627Z,2.23
2023-03-12T05:00:05.507Z,2.53
2023-03-12T05:02:31.846Z,2.50
2023-03-12T05:04:58.230Z,2.57
2023-03-12T05:07:24.584Z,2.20
2023-03-12T05:09:50.904Z,2.43
2023-03-12T05:12:17.218Z,2.30
2023-03-12T05:14:43.526Z,2.43
2023-03-12T05:17:09.860Z,2.57
2023-03-12T05:19:36.183Z,2.60
2023-03-12T05:22:02.592Z,2.47
2023-03-12T05:24:28.934Z,2.90
2023-03-12T05:26:55.322Z,3.60
2023-03-12T05:29:21.689Z,3.10
2023-03-12T05:31:48.121Z,3.03
2023-03-12T05:34:14.548Z,3.03
2023-03-12T05:36:40.887Z,2.90
2023-03-12T05:39:07.223Z,3.50
2023-03-12T05:41:33.530Z,2.73
2023-03-12T05:43:59.949Z,2.80
2023-03-12T05:46:26.261Z,2.50
2023-03-12T05:48:52.575Z,3.10
2023-03-12T05:51:18.886Z,2.93
2023-03-12T05:53:45.211Z,2.57
2023-03-12T05:56:11.518Z,3.07
2023-03-12T05:58:38.215Z,2.67
2023-03-12T06:01:04.944Z,3.00
2023-03-12T06:03:31.320Z,3.17
2023-03-12T06:05:57.674Z,3.17
2023-03-12T06:08:24.014Z,2.47
2023-03-12T06:10:50.323Z,2.30
2023-03-12T06:13:16.629Z,2.40
2023-03-12T06:15:42.941Z,2.40
2023-03-12T06:18:09.260Z,2.50
2023-03-12T06:20:35.568Z,2.10
2023-03-12T06:23:01.899Z,2.40
2023-03-12T06:25:28.206Z,2.60
2023-03-12T06:27:54.546Z,2.53
2023-03-12T06:30:20.916Z,2.33
2023-03-12T06:32:47.246Z,2.20
2023-03-12T06:35:13.576Z,2.33
2023-03-12T06:37:39.900Z,2.70
2023-03-12T06:40:07.707Z,2.23
2023-03-12T06:42:34.046Z,2.10
2023-03-12T06:45:00.404Z,2.20
2023-03-12T06:47:26.707Z,2.25
2023-03-12T06:49:53.041Z,2.20
2023-03-12T06:52:19.374Z,1.90
2023-03-12T06:54:45.706Z,2.00
2023-03-12T06:57:12.073Z,2.20
2023-03-12T06:59:38.574Z,1.87
2023-03-12T07:02:04.987Z,2.03
2023-03-12T07:04:31.369Z,2.22
2023-03-12T07:06:57.704Z,1.80
2023-03-12T07:09:24.151Z,1.80
2023-03-12T07:11:50.513Z,1.90
2023-03-12T07:14:16.837Z,2.45
2023-03-12T07:16:43.646Z,1.73
2023-03-12T07:19:09.979Z,2.47
2023-03-12T07:21:36.458Z,2.03
2023-03-12T07:24:06.969Z,2.15
2023-03-12T07:26:33.582Z,2.15
2023-03-12T07:28:59.881Z,1.83
2023-03-12T07:31:26.262Z,2.30
2023-03-12T07:33:52.706Z,2.10
2023-03-12T07:36:19.222Z,2.83
2023-03-12T07:38:47.916Z,3.30
2023-03-12T07:41:14.325Z,3.37
2023-03-12T07:43:40.733Z,3.87
2023-03-12T07:46:07.122Z,4.50
2023-03-12T07:48:33.474Z,4.20
2023-03-12T07:50:59.848Z,3.92
2023-03-12T07:53:26.348Z,4.00
2023-03-12T07:55:53.110Z,2.90
2023-03-12T07:58:19.603Z,2.97
2023-03-12T08:00:46.586Z,3.67
2023-03-12T08:03:13.586Z,3.80
2023-03-12T08:05:40.205Z,4.43
2023-03-12T08:08:06.580Z,3.20
2023-03-12T08:10:32.952Z,3.58
2023-03-12T08:12:59.342Z,2.90
2023-03-12T08:15:25.674Z,3.20
2023-03-12T08:17:52.063Z,3.10
2023-03-12T08:20:18.469Z,3.58
2023-03-12T08:22:44.822Z,3.50
2023-03-12T08:25:11.132Z,3.62
2023-03-12T08:27:37.500Z,3.28
2023-03-12T08:30:04.093Z,3.37
2023-03-12T08:32:30.574Z,2.75
2023-03-12T08:34:57.758Z,3.03
2023-03-12T08:37:24.156Z,2.70
2023-03-12T08:39:50.481Z,3.12
2023-03-12T08:42:16.787Z,2.58
2023-03-12T08:44:43.161Z,3.15
2023-03-12T08:47:09.488Z,2.67
2023-03-12T08:49:35.810Z,2.75
2023-03-12T08:52:02.199Z,3.25
2023-03-12T08:54:28.534Z,2.90
2023-03-12T08:56:54.862Z,2.42
2023-03-12T08:59:22.318Z,2.92
2023-03-12T09:01:48.760Z,3.40
2023-03-12T09:04:15.206Z,2.95
2023-03-12T09:06:41.560Z,3.40
2023-03-12T09:09:09.142Z,3.33
2023-03-12T09:11:35.464Z,2.40
2023-03-12T09:14:46.322Z,2.83
2023-03-12T09:16:48.215Z,1.87
2023-03-12T09:19:14.556Z,1.40
2023-03-12T09:21:40.886Z,1.30
2023-03-12T09:24:17.811Z,1.20
2023-03-12T09:26:44.132Z,1.30
2023-03-12T09:29:10.468Z,1.50
2023-03-12T09:31:37.199Z,1.25
2023-03-12T09:34:03.777Z,1.80
2023-03-12T09:36:30.104Z,1.45
2023-03-12T09:38:56.404Z,1.77
2023-03-12T09:41:22.790Z,1.85
2023-03-12T09:43:49.126Z,1.45
2023-03-12T09:46:15.476Z,1.75
2023-03-12T09:48:41.986Z,1.50
2023-03-12T09:51:08.319Z,1.70
2023-03-12T09:53:34.840Z,1.80
2023-03-12T09:56:01.266Z,1.65
2023-03-12T09:58:27.592Z,1.40
2023-03-12T10:00:53.959Z,1.33
2023-03-12T10:03:20.338Z,1.73
2023-03-12T10:05:46.862Z,1.45
2023-03-12T10:08:23.920Z,1.48
2023-03-12T10:10:51.764Z,1.33
2023-03-12T10:13:18.160Z,1.20
2023-03-12T10:15:44.618Z,1.48
2023-03-12T10:18:11.071Z,1.60
2023-03-12T10:20:37.486Z,1.45
2023-03-12T10:23:03.839Z,1.30
2023-03-12T10:25:30.268Z,1.30
2023-03-12T10:27:56.786Z,1.08
2023-03-12T10:30:24.113Z,1.27
2023-03-12T10:35:22.165Z,1.25
2023-03-12T10:37:48.496Z,1.42
2023-03-12T10:40:14.811Z,1.50
2023-03-12T10:42:41.140Z,1.25
2023-03-12T10:45:07.472Z,1.20
2023-03-12T10:47:35.153Z,1.15
2023-03-12T10:50:01.546Z,1.30
2023-03-12T10:52:27.868Z,1.60
2023-03-12T10:54:54.244Z,1.17
2023-03-12T10:57:24.032Z,1.20
2023-03-12T10:59:51.469Z,1.37
2023-03-12T11:02:17.861Z,1.25
2023-03-12T11:04:44.176Z,1.35
2023-03-12T11:07:10.499Z,1.50
2023-03-12T11:09:36.825Z,1.33
2023-03-12T11:12:03.214Z,1.15
2023-03-12T11:14:29.581Z,1.30
2023-03-12T11:16:56.650Z,2.00
2023-03-12T11:19:22.971Z,1.15
2023-03-12T11:21:49.298Z,1.10
2023-03-12T11:24:16.217Z,1.05
2023-03-12T11:26:42.536Z,1.37
2023-03-12T11:29:08.924Z,1.37
2023-03-12T11:31:35.262Z,1.23
2023-03-12T11:34:01.630Z,1.33
2023-03-12T11:36:27.946Z,1.25
2023-03-12T11:38:54.273Z,1.50
2023-03-12T11:41:20.637Z,1.52
2023-03-12T11:43:46.959Z,1.50
2023-03-12T11:46:13.371Z,1.83
2023-03-12T11:48:39.768Z,1.50
2023-03-12T11:51:06.110Z,1.52
2023-03-12T11:53:32.459Z,1.65
2023-03-12T11:55:58.807Z,1.85
2023-03-12T11:58:25.131Z,1.60
2023-03-12T12:00:51.447Z,1.70
2023-03-12T12:03:17.841Z,1.83
2023-03-12T12:05:44.206Z,1.85
2023-03-12T12:08:10.532Z,1.73
2023-03-12T12:10:36.846Z,1.83
2023-03-12T12:13:03.185Z,2.10
2023-03-12T12:15:29.554Z,1.55
2023-03-12T12:17:55.894Z,1.95
2023-03-12T12:20:22.310Z,1.92
2023-03-12T12:22:49.632Z,1.98
2023-03-12T12:25:16.112Z,1.70
2023-03-12T12:27:42.531Z,2.37
2023-03-12T12:30:08.893Z,2.05
2023-03-12T12:32:35.280Z,2.12
2023-03-12T12:35:01.631Z,1.92
2023-03-12T12:37:27.961Z,2.03
2023-03-12T12:39:54.323Z,2.55
2023-03-12T12:42:20.678Z,2.05
2023-03-12T12:44:47.017Z,2.05
2023-03-12T12:47:16.657Z,2.67
2023-03-12T12:49:43.087Z,2.08
2023-03-12T12:52:09.427Z,2.12
2023-03-12T12:54:35.732Z,2.15
2023-03-12T12:57:02.121Z,2.50
2023-03-12T12:59:28.574Z,2.50
2023-03-12T13:01:54.883Z,2.25
2023-03-12T13:04:21.278Z,2.25
2023-03-12T13:06:47.608Z,2.40
2023-03-12T13:09:13.976Z,2.30
2023-03-12T13:11:41.210Z,2.15
2023-03-12T13:14:07.544Z,2.20
2023-03-12T13:16:33.952Z,2.67
2023-03-12T13:19:00.296Z,2.40
2023-03-12T13:21:26.623Z,2.40
2023-03-12T13:23:52.944Z,2.00
2023-03-12T13:26:19.325Z,2.10
2023-03-12T13:28:45.640Z,2.20
2023-03-12T13:31:12.026Z,2.22
2023-03-12T13:33:38.365Z,1.85
2023-03-12T13:36:05.015Z,2.17
2023-03-12T13:38:32.114Z,2.33
2023-03-12T13:41:01.316Z,3.30
2023-03-12T13:43:27.631Z,2.58
2023-03-12T13:45:53.975Z,2.15
2023-03-12T13:48:20.370Z,1.77
2023-03-12T13:50:46.685Z,2.10
2023-03-12T13:53:13.001Z,1.98
2023-03-12T13:55:41.061Z,1.73
2023-03-12T13:58:07.454Z,2.28
2023-03-12T14:00:33.809Z,1.92
2023-03-12T14:03:00.139Z,1.98
2023-03-12T14:05:26.451Z,2.20
2023-03-12T14:07:52.768Z,2.30
2023-03-12T14:10:19.107Z,1.95
2023-03-12T14:12:45.493Z,2.33
2023-03-12T14:15:11.837Z,2.25
2023-03-12T14:17:38.194Z,1.87
2023-03-12T14:20:07.173Z,1.75
2023-03-12T14:22:33.555Z,1.65
2023-03-12T14:25:01.959Z,1.50
2023-03-12T14:27:28.447Z,1.70
2023-03-12T14:29:54.771Z,2.78
2023-03-12T14:32:22.676Z,2.00
2023-03-12T14:34:49.415Z,2.00
2023-03-12T14:37:16.549Z,2.20
2023-03-12T14:39:42.871Z,2.08
2023-03-12T14:42:09.216Z,2.25
2023-03-12T14:44:36.709Z,2.35
2023-03-12T14:47:03.157Z,2.17
2023-03-12T14:49:29.580Z,2.25
2023-03-12T14:51:55.938Z,2.20
2023-03-12T14:54:23.822Z,2.55
2023-03-12T14:56:50.247Z,2.00
2023-03-12T14:59:16.584Z,2.92
2023-03-12T15:01:42.902Z,3.25
2023-03-12T15:04:12.022Z,2.25
2023-03-12T15:06:38.381Z,2.60
2023-03-12T15:09:04.794Z,3.90
2023-03-12T15:11:32.594Z,3.35
2023-03-12T15:13:58.893Z,2.85
2023-03-12T15:16:25.296Z,3.03
2023-03-12T15:18:53.057Z,2.60
2023-03-12T15:21:19.408Z,3.58
2023-03-12T15:23:45.738Z,2.47
2023-03-12T15:26:12.091Z,2.85
2023-03-12T15:28:38.479Z,3.95
2023-03-12T15:31:05.205Z,3.58
2023-03-12T15:33:31.580Z,2.97
2023-03-12T15:35:59.631Z,2.87
2023-03-12T15:38:26.270Z,2.75
2023-03-12T15:40:54.018Z,3.05
2023-03-12T15:43:20.424Z,2.60
2023-03-12T15:45:46.932Z,2.67
2023-03-12T15:48:13.339Z,2.90
2023-03-12T15:50:39.654Z,3.30
2023-03-12T15:53:06.114Z,3.10
2023-03-12T15:55:32.482Z,3.20
2023-03-12T15:57:58.816Z,2.75
2023-03-12T16:00:26.575Z,3.30
2023-03-12T16:02:52.966Z,3.37
2023-03-12T16:05:19.334Z,3.05
2023-03-12T16:07:45.678Z,3.97
2023-03-12T16:10:11.996Z,3.72
2023-03-12T16:12:38.341Z,6.75
2023-03-12T16:15:04.731Z,4.20
2023-03-12T16:17:31.096Z,5.00
2023-03-12T16:19:57.405Z,3.90
2023-03-12T16:22:23.734Z,4.10
2023-03-12T16:24:50.095Z,4.68
2023-03-12T16:27:23.688Z,4.15
2023-03-12T16:29:58.174Z,4.57
2023-03-12T16:32:24.601Z,4.62
2023-03-12T16:34:50.930Z,3.62
2023-03-12T16:37:17.275Z,4.07
2023-03-12T16:39:46.404Z,4.35
2023-03-12T16:42:12.726Z,4.20
2023-03-12T16:44:39.062Z,3.97
2023-03-12T16:47:05.608Z,6.57
2023-03-12T16:49:32.033Z,6.30
2023-03-12T16:51:58.925Z,4.68
2023-03-12T16:54:25.287Z,4.80
2023-03-12T16:56:51.674Z,6.00
2023-03-12T16:59:17.996Z,4.80
2023-03-12T17:01:44.348Z,4.65
2023-03-12T17:04:10.789Z,4.68
2023-03-12T17:06:40.040Z,4.90
2023-03-12T17:09:08.746Z,5.37
2023-03-12T17:11:35.130Z,5.30
2023-03-12T17:14:01.505Z,4.72
2023-03-12T17:16:27.902Z,4.70
2023-03-12T17:18:54.299Z,4.32
2023-03-12T17:21:20.653Z,4.05
2023-03-12T17:23:46.984Z,4.35
2023-03-12T17:26:13.382Z,4.87
2023-03-12T17:28:39.759Z,4.53
2023-03-12T17:31:06.139Z,4.65
2023-03-12T17:33:32.558Z,4.20
2023-03-12T17:35:59.160Z,3.83
2023-03-12T17:38:25.564Z,3.55
2023-03-12T17:40:51.904Z,3.75
2023-03-12T17:43:18.237Z,3.60
2023-03-12T17:45:44.600Z,3.58
2023-03-12T17:48:10.934Z,3.33
2023-03-12T17:50:37.243Z,3.70
2023-03-12T17:53:03.585Z,2.97
2023-03-12T17:55:29.959Z,3.87
2023-03-12T17:57:56.308Z,3.03
2023-03-12T18:00:23.230Z,2.40
2023-03-12T18:02:49.583Z,2.80
2023-03-12T18:05:15.923Z,3.12
2023-03-12T18:07:45.541Z,2.40
2023-03-12T18:10:11.854Z,2.97
2023-03-12T18:12:39.121Z,2.70
2023-03-12T18:15:05.515Z,2.30
2023-03-12T18:17:31.840Z,2.70
2023-03-12T18:19:58.152Z,2.97
2023-03-12T18:22:24.659Z,2.70
2023-03-12T18:24:50.988Z,3.22
2023-03-12T18:27:17.302Z,2.10
2023-03-12T18:29:43.673Z,2.45
2023-03-12T18:32:10.022Z,2.08
2023-03-12T18:34:39.538Z,2.30
2023-03-12T18:37:05.851Z,2.97
2023-03-12T18:42:03.674Z,2.40
2023-03-12T18:44:30.005Z,2.10
2023-03-12T18:46:56.445Z,2.28
2023-03-12T18:49:22.881Z,2.45
2023-03-12T18:51:57.539Z,2.30
2023-03-12T18:54:24.827Z,2.45
2023-03-12T18:56:51.396Z,2.05
2023-03-12T18:59:17.764Z,2.20
2023-03-12T19:01:45.591Z,2.15
2023-03-12T19:04:11.959Z,2.83
2023-03-12T19:06:50.179Z,1.92
2023-03-12T19:09:17.815Z,1.80
2023-03-12T19:11:44.150Z,1.80
2023-03-12T19:14:12.368Z,2.00
2023-03-12T19:16:38.810Z,1.95
2023-03-12T19:19:05.203Z,1.73
2023-03-12T19:21:31.552Z,1.70
2023-03-12T19:23:58.104Z,1.50
2023-03-12T19:26:24.618Z,1.40
2023-03-12T19:28:50.977Z,1.85
2023-03-12T19:31:17.376Z,1.73
2023-03-12T19:33:44.850Z,1.33
2023-03-12T19:36:11.288Z,1.70
2023-03-12T19:38:37.783Z,1.60
2023-03-12T19:41:04.152Z,1.65
2023-03-12T19:43:30.494Z,1.85
2023-03-12T19:45:56.903Z,1.62
2023-03-12T19:48:25.299Z,1.40
2023-03-12T19:50:52.213Z,1.42
2023-03-12T19:53:19.763Z,1.92
2023-03-12T19:55:46.095Z,1.80
2023-03-12T19:58:12.412Z,1.67
2023-03-12T20:00:38.760Z,1.40
2023-03-12T20:03:05.284Z,1.33
2023-03-12T20:05:31.656Z,1.42
2023-03-12T20:07:57.980Z,1.42
2023-03-12T20:10:24.445Z,1.30
2023-03-12T20:12:50.741Z,1.48
2023-03-12T20:15:17.040Z,1.52
2023-03-12T20:17:43.354Z,1.42
2023-03-12T20:20:09.657Z,1.70
2023-03-12T20:22:38.984Z,1.70
2023-03-12T20:25:05.547Z,1.60
2023-03-12T20:27:31.868Z,1.52
2023-03-12T20:29:58.177Z,1.60
2023-03-12T20:32:24.543Z,1.95
2023-03-12T20:34:50.862Z,1.73
2023-03-12T20:37:18.113Z,1.60
2023-03-12T20:39:44.480Z,1.50
2023-03-12T20:42:10.794Z,1.70
2023-03-12T20:44:37.238Z,1.85
2023-03-12T20:47:03.611Z,1.60
2023-03-12T20:49:29.922Z,1.60
2023-03-12T20:51:56.248Z,1.80
2023-03-12T20:54:24.492Z,1.60
2023-03-12T20:56:50.854Z,1.50
2023-03-12T20:59:17.157Z,1.55
2023-03-12T21:01:43.692Z,1.60
2023-03-12T21:04:10.048Z,1.60
2023-03-12T21:06:36.455Z,2.00
2023-03-12T21:09:02.825Z,1.58
2023-03-12T21:11:29.244Z,1.55
2023-03-12T21:13:55.546Z,1.67
2023-03-12T21:16:21.959Z,1.62
2023-03-12T21:18:48.345Z,1.37
2023-03-12T21:21:14.833Z,1.60
2023-03-12T21:23:41.295Z,2.03
2023-03-12T21:26:09.333Z,1.60
2023-03-12T21:28:36.148Z,1.70
2023-03-12T21:31:02.545Z,1.65
2023-03-12T21:33:28.868Z,1.70
2023-03-12T21:35:55.299Z,1.33
2023-03-12T21:38:21.635Z,1.70
2023-03-12T21:40:47.941Z,1.35
2023-03-12T21:43:14.256Z,1.67
2023-03-12T22:00:14.310Z,2.00
2023-03-12T22:02:40.621Z,2.25
2023-03-12T22:05:06.917Z,1.92
2023-03-12T22:07:33.261Z,2.17
2023-03-12T22:09:59.575Z,2.35
2023-03-12T22:12:25.923Z,2.00
2023-03-12T22:14:52.322Z,1.90
2023-03-12T22:17:18.634Z,2.25
2023-03-12T22:19:44.962Z,2.25
2023-03-12T22:22:11.309Z,2.80
2023-03-12T22:24:37.727Z,2.58
2023-03-12T22:27:06.587Z,2.15
2023-03-12T22:29:32.897Z,2.87
2023-03-12T22:31:59.197Z,2.50
2023-03-12T22:34:25.510Z,2.35
2023-03-12T22:36:51.832Z,3.30
2023-03-12T22:39:18.173Z,3.15
2023-03-12T22:41:44.476Z,3.03
2023-03-12T22:44:10.778Z,2.90
2023-03-12T22:46:37.178Z,2.97
2023-03-12T22:49:03.660Z,3.33
2023-03-12T22:51:30.003Z,3.55
2023-03-12T22:53:56.310Z,2.92
2023-03-12T22:56:22.680Z,2.85
2023-03-12T22:58:49.104Z,3.45
2023-03-12T23:01:15.672Z,3.30
2023-03-12T23:03:42.004Z,3.03
2023-03-12T23:06:08.510Z,3.50
2023-03-12T23:08:34.861Z,3.30
2023-03-12T23:11:01.165Z,3.80
2023-03-12T23:13:27.474Z,3.67
2023-03-12T23:15:53.789Z,4.00
2023-03-12T23:18:20.131Z,3.22
2023-03-12T23:20:46.555Z,3.05
2023-03-12T23:23:15.616Z,3.28
2023-03-12T23:25:41.947Z,3.10
2023-03-12T23:28:08.263Z,3.62
2023-03-12T23:30:34.909Z,3.53
2023-03-12T23:33:01.942Z,3.45
2023-03-12T23:35:28.815Z,3.58
2023-03-12T23:37:56.602Z,4.00
2023-03-12T23:40:22.934Z,3.45
2023-03-12T23:42:49.234Z,3.50
2023-03-12T23:45:15.554Z,3.72
2023-03-12T23:47:41.879Z,3.30
2023-03-12T23:50:08.213Z,3.50
2023-03-12T23:52:34.528Z,4.00
2023-03-12T23:55:00.849Z,3.37
2023-03-12T23:57:27.189Z,3.50
2023-03-12T23:59:53.530Z,3.75
